createdAt,value
2022-10-06T00:00:16.192Z,1013.63
2022-10-06T00:01:16.277Z,1013.59
2022-10-06T00:02:16.217Z,1013.57
2022-10-06T00:03:16.181Z,1013.58
2022-10-06T00:04:16.183Z,1013.54
2022-10-06T00:05:16.182Z,1013.59
2022-10-06T00:06:16.177Z,1013.57
2022-10-06T00:07:16.182Z,1013.64
2022-10-06T00:08:16.180Z,1013.62
2022-10-06T00:09:16.202Z,1013.63
2022-10-06T00:10:16.179Z,1013.62
2022-10-06T00:11:16.177Z,1013.65
2022-10-06T00:12:16.184Z,1013.65
2022-10-06T00:13:16.178Z,1013.66
2022-10-06T00:14:16.183Z,1013.68
2022-10-06T00:15:16.183Z,1013.67
2022-10-06T00:16:16.230Z,1013.67
2022-10-06T00:17:16.176Z,1013.68
2022-10-06T00:18:16.177Z,1013.71
2022-10-06T00:19:16.175Z,1013.69
2022-10-06T00:20:16.179Z,1013.69
2022-10-06T00:21:16.173Z,1013.69
2022-10-06T00:22:16.188Z,1013.71
2022-10-06T00:23:16.181Z,1013.72
2022-10-06T00:24:16.179Z,1013.74
2022-10-06T00:25:16.198Z,1013.75
2022-10-06T00:26:16.174Z,1013.77
2022-10-06T00:27:16.174Z,1013.80
2022-10-06T00:28:16.314Z,1013.82
2022-10-06T00:29:16.176Z,1013.83
2022-10-06T00:30:16.497Z,1013.88
2022-10-06T00:31:16.255Z,1013.84
2022-10-06T00:32:16.172Z,1013.88
2022-10-06T00:33:16.173Z,1013.84
2022-10-06T00:34:16.177Z,1013.86
2022-10-06T00:35:16.173Z,1013.87
2022-10-06T00:36:16.171Z,1013.85
2022-10-06T00:37:16.171Z,1013.93
2022-10-06T00:38:16.175Z,1013.89
2022-10-06T00:39:16.169Z,1013.92
2022-10-06T00:40:16.176Z,1013.90
2022-10-06T00:41:16.228Z,1013.85
2022-10-06T00:42:16.172Z,1013.86
2022-10-06T00:43:16.167Z,1013.89
2022-10-06T00:44:16.165Z,1013.93
2022-10-06T00:45:16.164Z,1013.94
2022-10-06T00:46:16.214Z,1013.94
2022-10-06T00:47:16.174Z,1013.95
2022-10-06T00:48:16.178Z,1013.96
2022-10-06T00:49:16.167Z,1013.97
2022-10-06T00:50:16.166Z,1014.01
2022-10-06T00:51:16.166Z,1013.99
2022-10-06T00:52:16.170Z,1013.98
2022-10-06T00:53:16.165Z,1014.03
2022-10-06T00:54:16.169Z,1014.06
2022-10-06T00:55:16.165Z,1013.96
2022-10-06T00:56:16.172Z,1014.01
2022-10-06T00:57:16.184Z,1013.95
2022-10-06T00:58:16.168Z,1013.98
2022-10-06T00:59:16.164Z,1014.00
2022-10-06T01:00:16.166Z,1013.98
2022-10-06T01:01:16.181Z,1014.08
2022-10-06T01:02:16.237Z,1014.06
2022-10-06T01:03:16.160Z,1014.06
2022-10-06T01:04:16.161Z,1014.09
2022-10-06T01:05:16.163Z,1014.10
2022-10-06T01:06:16.165Z,1014.11
2022-10-06T01:07:16.161Z,1014.15
2022-10-06T01:08:16.165Z,1014.14
2022-10-06T01:09:16.162Z,1014.15
2022-10-06T01:10:16.159Z,1014.13
2022-10-06T01:11:16.161Z,1014.13
2022-10-06T01:12:16.162Z,1014.18
2022-10-06T01:13:16.230Z,1014.11
2022-10-06T01:14:16.162Z,1014.18
2022-10-06T01:15:16.158Z,1014.14
2022-10-06T01:16:16.243Z,1014.10
2022-10-06T01:17:16.154Z,1014.10
2022-10-06T01:18:16.157Z,1014.13
2022-10-06T01:19:16.158Z,1014.15
2022-10-06T01:20:16.161Z,1014.12
2022-10-06T01:21:16.158Z,1014.14
2022-10-06T01:22:16.156Z,1014.09
2022-10-06T01:23:16.155Z,1014.12
2022-10-06T01:24:16.158Z,1014.18
2022-10-06T01:25:16.152Z,1014.17
2022-10-06T01:26:16.485Z,1014.15
2022-10-06T01:27:16.155Z,1014.20
2022-10-06T01:28:16.229Z,1014.14
2022-10-06T01:29:16.188Z,1014.13
2022-10-06T01:30:16.157Z,1014.16
2022-10-06T01:31:16.223Z,1014.19
2022-10-06T01:32:16.155Z,1014.27
2022-10-06T01:33:16.149Z,1014.27
2022-10-06T01:34:16.156Z,1014.26
2022-10-06T01:35:16.149Z,1014.23
2022-10-06T01:36:16.150Z,1014.22
2022-10-06T01:37:16.149Z,1014.20
2022-10-06T01:38:16.149Z,1014.28
2022-10-06T01:39:16.151Z,1014.28
2022-10-06T01:40:16.154Z,1014.28
2022-10-06T01:41:16.173Z,1014.29
2022-10-06T01:42:16.154Z,1014.28
2022-10-06T01:43:16.152Z,1014.32
2022-10-06T01:44:16.152Z,1014.32
2022-10-06T01:45:16.227Z,1014.36
2022-10-06T01:46:16.241Z,1014.34
2022-10-06T01:47:16.151Z,1014.36
2022-10-06T01:48:16.150Z,1014.32
2022-10-06T01:49:16.153Z,1014.33
2022-10-06T01:50:16.146Z,1014.33
2022-10-06T01:51:16.179Z,1014.30
2022-10-06T01:52:16.148Z,1014.32
2022-10-06T01:53:16.144Z,1014.32
2022-10-06T01:54:16.148Z,1014.32
2022-10-06T01:55:16.144Z,1014.35
2022-10-06T01:56:16.145Z,1014.33
2022-10-06T01:57:16.144Z,1014.34
2022-10-06T01:58:16.148Z,1014.30
2022-10-06T01:59:16.144Z,1014.31
2022-10-06T02:00:16.145Z,1014.30
2022-10-06T02:01:16.335Z,1014.34
2022-10-06T02:02:16.144Z,1014.36
2022-10-06T02:03:16.146Z,1014.35
2022-10-06T02:04:16.204Z,1014.30
2022-10-06T02:05:16.145Z,1014.33
2022-10-06T02:06:16.192Z,1014.33
2022-10-06T02:07:16.144Z,1014.33
2022-10-06T02:08:16.149Z,1014.31
2022-10-06T02:09:16.144Z,1014.34
2022-10-06T02:10:16.138Z,1014.34
2022-10-06T02:11:16.140Z,1014.34
2022-10-06T02:12:16.148Z,1014.35
2022-10-06T02:13:16.138Z,1014.41
2022-10-06T02:14:16.148Z,1014.35
2022-10-06T02:15:16.137Z,1014.39
2022-10-06T02:16:16.230Z,1014.34
2022-10-06T02:17:16.180Z,1014.33
2022-10-06T02:18:16.178Z,1014.35
2022-10-06T02:19:16.141Z,1014.37
2022-10-06T02:20:16.142Z,1014.37
2022-10-06T02:21:16.144Z,1014.33
2022-10-06T02:22:16.140Z,1014.31
2022-10-06T02:23:16.140Z,1014.34
2022-10-06T02:24:16.142Z,1014.40
2022-10-06T02:25:16.142Z,1014.41
2022-10-06T02:26:16.145Z,1014.42
2022-10-06T02:27:16.144Z,1014.43
2022-10-06T02:28:16.189Z,1014.41
2022-10-06T02:29:16.137Z,1014.42
2022-10-06T02:30:16.141Z,1014.42
2022-10-06T02:31:16.197Z,1014.43
2022-10-06T02:32:16.152Z,1014.43
2022-10-06T02:33:16.236Z,1014.41
2022-10-06T02:34:16.141Z,1014.46
2022-10-06T02:35:16.134Z,1014.46
2022-10-06T02:36:16.139Z,1014.49
2022-10-06T02:37:16.140Z,1014.54
2022-10-06T02:38:16.140Z,1014.57
2022-10-06T02:39:16.136Z,1014.58
2022-10-06T02:40:16.138Z,1014.64
2022-10-06T02:41:16.155Z,1014.58
2022-10-06T02:42:16.138Z,1014.60
2022-10-06T02:43:16.134Z,1014.56
2022-10-06T02:44:16.143Z,1014.61
2022-10-06T02:45:16.137Z,1014.61
2022-10-06T02:46:16.191Z,1014.61
2022-10-06T02:47:16.134Z,1014.65
2022-10-06T02:48:16.242Z,1014.68
2022-10-06T02:49:16.152Z,1014.61
2022-10-06T02:50:16.138Z,1014.66
2022-10-06T02:51:16.134Z,1014.63
2022-10-06T02:52:16.141Z,1014.69
2022-10-06T02:53:16.137Z,1014.67
2022-10-06T02:54:16.140Z,1014.68
2022-10-06T02:55:16.137Z,1014.67
2022-10-06T02:56:16.246Z,1014.69
2022-10-06T02:57:16.128Z,1014.67
2022-10-06T02:58:16.145Z,1014.66
2022-10-06T02:59:16.131Z,1014.77
2022-10-06T03:00:16.136Z,1014.74
2022-10-06T03:01:16.231Z,1014.75
2022-10-06T03:02:16.261Z,1014.76
2022-10-06T03:03:16.144Z,1014.78
2022-10-06T03:04:16.144Z,1014.80
2022-10-06T03:05:16.176Z,1014.82
2022-10-06T03:06:16.152Z,1014.81
2022-10-06T03:07:16.133Z,1014.84
2022-10-06T03:08:16.132Z,1014.86
2022-10-06T03:09:16.127Z,1014.90
2022-10-06T03:10:16.135Z,1014.88
2022-10-06T03:11:16.126Z,1014.83
2022-10-06T03:12:16.131Z,1014.89
2022-10-06T03:13:16.125Z,1014.90
2022-10-06T03:14:20.737Z,1014.88
2022-10-06T03:15:16.126Z,1014.90
2022-10-06T03:16:16.149Z,1014.91
2022-10-06T03:17:16.127Z,1014.88
2022-10-06T03:18:16.128Z,1014.88
2022-10-06T03:19:16.126Z,1014.89
2022-10-06T03:20:16.131Z,1015.04
2022-10-06T03:21:16.144Z,1015.01
2022-10-06T03:22:16.133Z,1015.00
2022-10-06T03:23:16.128Z,1015.03
2022-10-06T03:24:16.128Z,1014.96
2022-10-06T03:25:16.125Z,1015.01
2022-10-06T03:26:16.123Z,1014.97
2022-10-06T03:27:16.123Z,1014.93
2022-10-06T03:28:16.228Z,1014.98
2022-10-06T03:29:16.120Z,1014.98
2022-10-06T03:30:16.128Z,1014.98
2022-10-06T03:31:16.204Z,1015.08
2022-10-06T03:32:16.125Z,1015.07
2022-10-06T03:33:16.125Z,1015.06
2022-10-06T03:34:16.120Z,1015.10
2022-10-06T03:35:16.123Z,1015.17
2022-10-06T03:36:16.124Z,1015.16
2022-10-06T03:37:16.139Z,1015.17
2022-10-06T03:38:16.120Z,1015.24
2022-10-06T03:39:16.125Z,1015.24
2022-10-06T03:40:16.124Z,1015.23
2022-10-06T03:41:16.130Z,1015.32
2022-10-06T03:42:16.122Z,1015.32
2022-10-06T03:43:16.124Z,1015.41
2022-10-06T03:44:16.126Z,1015.44
2022-10-06T03:45:16.203Z,1015.48
2022-10-06T03:46:16.187Z,1015.50
2022-10-06T03:47:17.431Z,1015.47
2022-10-06T03:48:16.120Z,1015.54
2022-10-06T03:49:16.117Z,1015.57
2022-10-06T03:50:16.119Z,1015.60
2022-10-06T03:51:16.123Z,1015.71
2022-10-06T03:52:16.116Z,1015.74
2022-10-06T03:53:16.142Z,1015.76
2022-10-06T03:54:16.117Z,1015.79
2022-10-06T03:55:16.116Z,1015.84
2022-10-06T03:56:16.121Z,1015.82
2022-10-06T03:57:16.115Z,1015.76
2022-10-06T03:58:16.116Z,1015.87
2022-10-06T03:59:16.118Z,1015.92
2022-10-06T04:00:16.117Z,1016.00
2022-10-06T04:01:16.205Z,1016.05
2022-10-06T04:02:16.166Z,1016.05
2022-10-06T04:03:16.118Z,1016.10
2022-10-06T04:04:16.118Z,1016.03
2022-10-06T04:05:16.117Z,1016.04
2022-10-06T04:06:16.125Z,1016.07
2022-10-06T04:07:16.115Z,1016.10
2022-10-06T04:08:16.119Z,1016.06
2022-10-06T04:09:16.248Z,1016.04
2022-10-06T04:10:16.118Z,1016.06
2022-10-06T04:11:16.118Z,1016.08
2022-10-06T04:12:16.114Z,1016.12
2022-10-06T04:13:16.113Z,1016.15
2022-10-06T04:14:16.116Z,1016.19
2022-10-06T04:15:16.115Z,1016.21
2022-10-06T04:16:16.179Z,1016.26
2022-10-06T04:17:16.116Z,1016.29
2022-10-06T04:18:16.115Z,1016.30
2022-10-06T04:19:16.120Z,1016.38
2022-10-06T04:20:16.142Z,1016.36
2022-10-06T04:21:16.112Z,1016.36
2022-10-06T04:22:16.112Z,1016.36
2022-10-06T04:23:16.119Z,1016.35
2022-10-06T04:24:16.111Z,1016.37
2022-10-06T04:25:16.138Z,1016.43
2022-10-06T04:26:16.110Z,1016.44
2022-10-06T04:27:16.125Z,1016.44
2022-10-06T04:28:16.160Z,1016.45
2022-10-06T04:29:16.116Z,1016.60
2022-10-06T04:30:16.109Z,1016.62
2022-10-06T04:31:16.187Z,1016.55
2022-10-06T04:32:16.110Z,1016.51
2022-10-06T04:33:16.113Z,1016.61
2022-10-06T04:34:16.108Z,1016.63
2022-10-06T04:35:16.116Z,1016.60
2022-10-06T04:36:16.114Z,1016.59
2022-10-06T04:37:16.110Z,1016.57
2022-10-06T04:38:16.107Z,1016.61
2022-10-06T04:39:16.111Z,1016.55
2022-10-06T04:40:16.113Z,1016.66
2022-10-06T04:41:16.137Z,1016.65
2022-10-06T04:42:16.110Z,1016.63
2022-10-06T04:43:16.108Z,1016.70
2022-10-06T04:44:16.108Z,1016.73
2022-10-06T04:45:16.112Z,1016.72
2022-10-06T04:46:41.386Z,1016.73
2022-10-06T04:47:16.110Z,1016.61
2022-10-06T04:48:16.105Z,1016.67
2022-10-06T04:49:20.039Z,1016.76
2022-10-06T04:50:16.112Z,1016.71
2022-10-06T04:51:16.105Z,1016.80
2022-10-06T04:52:16.104Z,1016.75
2022-10-06T04:53:16.109Z,1016.81
2022-10-06T04:54:16.107Z,1016.76
2022-10-06T04:55:16.112Z,1016.71
2022-10-06T04:56:16.107Z,1016.75
2022-10-06T04:57:16.137Z,1016.75
2022-10-06T04:58:16.103Z,1016.80
2022-10-06T04:59:16.119Z,1016.84
2022-10-06T05:00:16.105Z,1016.90
2022-10-06T05:01:16.200Z,1016.94
2022-10-06T05:02:16.184Z,1016.95
2022-10-06T05:03:16.105Z,1017.00
2022-10-06T05:04:16.103Z,1016.98
2022-10-06T05:05:16.102Z,1016.91
2022-10-06T05:06:16.106Z,1016.90
2022-10-06T05:07:16.105Z,1016.94
2022-10-06T05:08:16.104Z,1017.08
2022-10-06T05:09:16.158Z,1017.06
2022-10-06T05:10:16.102Z,1017.06
2022-10-06T05:11:18.153Z,1017.11
2022-10-06T05:12:16.121Z,1017.11
2022-10-06T05:13:16.123Z,1017.10
2022-10-06T05:14:16.098Z,1017.21
2022-10-06T05:15:16.103Z,1017.20
2022-10-06T05:16:16.202Z,1017.19
2022-10-06T05:17:16.100Z,1017.21
2022-10-06T05:18:16.098Z,1017.27
2022-10-06T05:19:16.098Z,1017.32
2022-10-06T05:20:16.101Z,1017.33
2022-10-06T05:21:16.103Z,1017.43
2022-10-06T05:22:16.097Z,1017.43
2022-10-06T05:23:16.102Z,1017.41
2022-10-06T05:24:16.101Z,1017.49
2022-10-06T05:25:16.101Z,1017.51
2022-10-06T05:26:16.099Z,1017.55
2022-10-06T05:27:16.095Z,1017.56
2022-10-06T05:28:16.150Z,1017.52
2022-10-06T05:29:16.130Z,1017.56
2022-10-06T05:30:16.099Z,1017.59
2022-10-06T05:31:16.143Z,1017.57
2022-10-06T05:32:16.099Z,1017.61
2022-10-06T05:33:16.099Z,1017.64
2022-10-06T05:34:16.099Z,1017.65
2022-10-06T05:35:16.095Z,1017.79
2022-10-06T05:36:16.095Z,1017.83
2022-10-06T05:37:16.096Z,1017.76
2022-10-06T05:38:16.095Z,1017.77
2022-10-06T05:39:16.097Z,1017.80
2022-10-06T05:40:16.100Z,1017.83
2022-10-06T05:41:16.095Z,1017.89
2022-10-06T05:42:16.097Z,1017.95
2022-10-06T05:43:16.099Z,1017.93
2022-10-06T05:44:16.100Z,1017.95
2022-10-06T05:45:16.132Z,1017.96
2022-10-06T05:46:16.179Z,1017.99
2022-10-06T05:47:16.098Z,1018.04
2022-10-06T05:48:16.096Z,1018.06
2022-10-06T05:49:16.094Z,1018.03
2022-10-06T05:50:16.094Z,1018.02
2022-10-06T05:51:16.097Z,1018.12
2022-10-06T05:52:16.090Z,1018.26
2022-10-06T05:53:16.091Z,1018.21
2022-10-06T05:54:16.094Z,1018.25
2022-10-06T05:55:16.104Z,1018.29
2022-10-06T05:56:16.100Z,1018.32
2022-10-06T05:57:16.094Z,1018.35
2022-10-06T05:58:18.498Z,1018.43
2022-10-06T05:59:16.092Z,1018.42
2022-10-06T06:00:16.103Z,1018.42
2022-10-06T06:01:16.187Z,1018.47
2022-10-06T06:02:16.201Z,1018.50
2022-10-06T06:03:16.100Z,1018.53
2022-10-06T06:04:16.090Z,1018.58
2022-10-06T06:05:16.097Z,1018.61
2022-10-06T06:06:16.094Z,1018.63
2022-10-06T06:07:16.093Z,1018.70
2022-10-06T06:08:16.093Z,1018.70
2022-10-06T06:09:16.090Z,1018.76
2022-10-06T06:10:16.093Z,1018.76
2022-10-06T06:11:16.106Z,1018.79
2022-10-06T06:12:16.090Z,1018.80
2022-10-06T06:13:16.091Z,1018.87
2022-10-06T06:14:16.092Z,1018.94
2022-10-06T06:15:16.092Z,1018.98
2022-10-06T06:16:16.159Z,1019.04
2022-10-06T06:17:16.121Z,1019.04
2022-10-06T06:18:16.090Z,1018.97
2022-10-06T06:19:16.092Z,1019.03
2022-10-06T06:20:16.091Z,1019.10
2022-10-06T06:21:16.088Z,1019.15
2022-10-06T06:22:16.088Z,1019.19
2022-10-06T06:23:16.091Z,1019.16
2022-10-06T06:24:16.087Z,1019.25
2022-10-06T06:25:16.110Z,1019.33
2022-10-06T06:26:16.088Z,1019.33
2022-10-06T06:27:16.087Z,1019.27
2022-10-06T06:28:16.166Z,1019.31
2022-10-06T06:29:16.109Z,1019.35
2022-10-06T06:30:16.088Z,1019.33
2022-10-06T06:31:19.893Z,1019.43
2022-10-06T06:32:16.095Z,1019.49
2022-10-06T06:33:16.132Z,1019.50
2022-10-06T06:34:16.087Z,1019.49
2022-10-06T06:35:16.090Z,1019.60
2022-10-06T06:36:16.085Z,1019.58
2022-10-06T06:37:16.086Z,1019.59
2022-10-06T06:38:16.086Z,1019.70
2022-10-06T06:39:16.089Z,1019.65
2022-10-06T06:40:16.091Z,1019.66
2022-10-06T06:41:16.085Z,1019.68
2022-10-06T06:42:16.088Z,1019.76
2022-10-06T06:43:16.087Z,1019.68
2022-10-06T06:44:16.087Z,1019.73
2022-10-06T06:45:16.087Z,1019.68
2022-10-06T06:46:16.254Z,1019.79
2022-10-06T06:47:16.088Z,1019.84
2022-10-06T06:48:16.082Z,1019.86
2022-10-06T06:49:16.109Z,1019.91
2022-10-06T06:50:16.086Z,1019.95
2022-10-06T06:51:16.085Z,1019.98
2022-10-06T06:52:16.082Z,1020.03
2022-10-06T06:53:16.352Z,1020.02
2022-10-06T06:54:16.085Z,1020.06
2022-10-06T06:55:16.083Z,1020.03
2022-10-06T06:56:16.083Z,1020.16
2022-10-06T06:57:16.083Z,1020.09
2022-10-06T06:58:16.078Z,1020.20
2022-10-06T06:59:16.079Z,1020.27
2022-10-06T07:00:16.088Z,1020.28
2022-10-06T07:01:16.151Z,1020.23
2022-10-06T07:02:16.131Z,1020.32
2022-10-06T07:03:24.127Z,1020.27
2022-10-06T07:04:16.084Z,1020.38
2022-10-06T07:05:16.104Z,1020.36
2022-10-06T07:06:16.082Z,1020.34
2022-10-06T07:07:16.077Z,1020.50
2022-10-06T07:08:16.077Z,1020.46
2022-10-06T07:09:16.077Z,1020.55
2022-10-06T07:10:16.077Z,1020.51
2022-10-06T07:11:16.076Z,1020.56
2022-10-06T07:12:16.094Z,1020.66
2022-10-06T07:13:17.357Z,1020.65
2022-10-06T07:14:16.087Z,1020.62
2022-10-06T07:15:16.080Z,1020.66
2022-10-06T07:16:16.117Z,1020.69
2022-10-06T07:17:16.080Z,1020.66
2022-10-06T07:18:16.093Z,1020.72
2022-10-06T07:19:16.078Z,1020.75
2022-10-06T07:20:16.085Z,1020.70
2022-10-06T07:21:16.105Z,1020.73
2022-10-06T07:22:16.074Z,1020.78
2022-10-06T07:23:16.079Z,1020.79
2022-10-06T07:24:16.078Z,1020.78
2022-10-06T07:25:16.075Z,1020.88
2022-10-06T07:26:16.078Z,1020.96
2022-10-06T07:27:16.081Z,1020.92
2022-10-06T07:28:16.130Z,1020.93
2022-10-06T07:29:16.081Z,1020.86
2022-10-06T07:30:16.077Z,1020.97
2022-10-06T07:31:16.135Z,1020.99
2022-10-06T07:32:16.077Z,1020.93
2022-10-06T07:33:16.074Z,1021.02
2022-10-06T07:34:16.083Z,1021.07
2022-10-06T07:35:16.077Z,1021.09
2022-10-06T07:36:16.081Z,1021.19
2022-10-06T07:37:16.100Z,1021.04
2022-10-06T07:38:16.078Z,1021.11
2022-10-06T07:39:16.080Z,1021.07
2022-10-06T07:40:16.077Z,1021.15
2022-10-06T07:41:20.315Z,1021.10
2022-10-06T07:42:16.075Z,1021.25
2022-10-06T07:43:16.082Z,1021.23
2022-10-06T07:44:16.081Z,1021.29
2022-10-06T07:45:16.076Z,1021.21
2022-10-06T07:46:16.227Z,1021.28
2022-10-06T07:47:16.082Z,1021.23
2022-10-06T07:48:16.077Z,1021.26
2022-10-06T07:49:16.081Z,1021.24
2022-10-06T07:50:16.076Z,1021.39
2022-10-06T07:51:16.078Z,1021.51
2022-10-06T07:52:16.077Z,1021.47
2022-10-06T07:53:16.112Z,1021.51
2022-10-06T07:54:16.080Z,1021.69
2022-10-06T07:55:16.081Z,1021.77
2022-10-06T07:56:16.077Z,1021.83
2022-10-06T07:57:16.080Z,1021.68
2022-10-06T07:58:16.080Z,1021.35
2022-10-06T07:59:16.081Z,1021.41
2022-10-06T08:00:16.090Z,1021.52
2022-10-06T08:01:16.206Z,1021.82
2022-10-06T08:02:16.179Z,1021.77
2022-10-06T08:03:16.158Z,1021.74
2022-10-06T08:04:16.087Z,1021.80
2022-10-06T08:05:16.084Z,1021.46
2022-10-06T08:06:16.085Z,1021.55
2022-10-06T08:07:16.083Z,1021.59
2022-10-06T08:08:16.088Z,1021.57
2022-10-06T08:09:16.114Z,1022.10
2022-10-06T08:10:16.096Z,1022.30
2022-10-06T08:11:16.095Z,1022.47
2022-10-06T08:12:16.093Z,1021.69
2022-10-06T08:13:16.088Z,1021.79
2022-10-06T08:14:16.086Z,1022.27
2022-10-06T08:15:16.091Z,1021.63
2022-10-06T08:16:16.177Z,1022.47
2022-10-06T08:17:16.089Z,1022.51
2022-10-06T08:18:33.686Z,1022.50
2022-10-06T08:19:16.099Z,1022.38
2022-10-06T08:20:16.091Z,1022.68
2022-10-06T08:21:16.090Z,1022.63
2022-10-06T08:22:16.096Z,1022.63
2022-10-06T08:23:16.093Z,1022.76
2022-10-06T08:24:16.096Z,1022.04
2022-10-06T08:25:16.624Z,1023.10
2022-10-06T08:26:16.098Z,1023.09
2022-10-06T08:27:16.099Z,1022.54
2022-10-06T08:28:16.148Z,1022.16
2022-10-06T08:29:16.104Z,1022.15
2022-10-06T08:30:16.102Z,1022.30
2022-10-06T08:31:16.186Z,1022.34
2022-10-06T08:32:16.104Z,1022.11
2022-10-06T08:33:18.148Z,1022.30
2022-10-06T08:34:16.124Z,1022.42
2022-10-06T08:35:16.109Z,1022.13
2022-10-06T08:36:16.113Z,1022.79
2022-10-06T08:37:20.285Z,1023.44
2022-10-06T08:38:16.114Z,1022.25
2022-10-06T08:39:16.113Z,1023.49
2022-10-06T08:40:16.122Z,1023.58
2022-10-06T08:41:16.134Z,1023.05
2022-10-06T08:42:16.122Z,1022.91
2022-10-06T08:43:16.123Z,1023.69
2022-10-06T08:44:16.129Z,1022.66
2022-10-06T08:45:16.133Z,1022.29
2022-10-06T08:46:18.737Z,1023.76
2022-10-06T08:47:16.131Z,1022.42
2022-10-06T08:48:16.140Z,1022.31
2022-10-06T08:49:16.136Z,1022.43
2022-10-06T08:50:16.139Z,1022.78
2022-10-06T08:51:16.141Z,1022.49
2022-10-06T08:52:16.144Z,1023.71
2022-10-06T08:53:16.423Z,1024.00
2022-10-06T08:54:16.148Z,1022.64
2022-10-06T08:55:16.148Z,1024.28
2022-10-06T08:56:16.162Z,1024.38
2022-10-06T08:57:16.195Z,1022.58
2022-10-06T08:58:16.163Z,1024.46
2022-10-06T08:59:16.169Z,1024.55
2022-10-06T09:00:19.564Z,1022.54
2022-10-06T09:01:16.202Z,1024.61
2022-10-06T09:02:16.206Z,1022.64
2022-10-06T09:03:16.186Z,1022.61
2022-10-06T09:04:16.190Z,1022.62
2022-10-06T09:05:16.197Z,1022.78
2022-10-06T09:06:16.196Z,1024.60
2022-10-06T09:07:16.205Z,1024.67
2022-10-06T09:08:16.209Z,1024.76
2022-10-06T09:09:16.206Z,1024.70
2022-10-06T09:10:16.214Z,1022.68
2022-10-06T09:11:16.217Z,1022.70
2022-10-06T09:12:16.226Z,1024.17
2022-10-06T09:13:20.974Z,1024.81
2022-10-06T09:14:16.233Z,1024.72
2022-10-06T09:15:16.238Z,1024.67
2022-10-06T09:16:16.290Z,1024.87
2022-10-06T09:17:16.257Z,1024.87
2022-10-06T09:18:16.269Z,1024.96
2022-10-06T09:19:16.263Z,1025.07
2022-10-06T09:20:16.265Z,1025.01
2022-10-06T09:21:16.275Z,1025.09
2022-10-06T09:22:16.282Z,1025.24
2022-10-06T09:23:16.305Z,1025.22
2022-10-06T09:24:16.316Z,1025.11
2022-10-06T09:25:16.303Z,1025.01
2022-10-06T09:26:16.310Z,1025.07
2022-10-06T09:27:16.319Z,1025.05
2022-10-06T09:28:16.416Z,1025.22
2022-10-06T09:29:16.426Z,1025.31
2022-10-06T09:30:16.344Z,1025.04
2022-10-06T09:31:16.445Z,1025.16
2022-10-06T09:32:16.365Z,1025.22
2022-10-06T09:33:16.374Z,1025.22
2022-10-06T09:34:16.387Z,1025.30
2022-10-06T09:35:16.400Z,1025.24
2022-10-06T09:36:16.404Z,1025.19
2022-10-06T09:37:16.413Z,1025.37
2022-10-06T09:38:16.425Z,1025.14
2022-10-06T09:39:16.439Z,1024.35
2022-10-06T09:40:16.444Z,1024.30
2022-10-06T09:41:16.461Z,1023.68
2022-10-06T09:42:16.475Z,1023.41
2022-10-06T09:43:16.481Z,1025.23
2022-10-06T09:44:16.498Z,1023.51
2022-10-06T09:45:16.523Z,1023.36
2022-10-06T09:46:16.521Z,1024.98
2022-10-06T09:47:16.530Z,1024.96
2022-10-06T09:48:18.151Z,1024.95
2022-10-06T09:49:16.551Z,1024.95
2022-10-06T09:50:16.563Z,1025.02
2022-10-06T09:51:16.580Z,1025.07
2022-10-06T09:52:16.587Z,1025.32
2022-10-06T09:53:16.609Z,1025.37
2022-10-06T09:54:16.615Z,1025.26
2022-10-06T09:55:16.624Z,1025.16
2022-10-06T09:56:16.639Z,1025.11
2022-10-06T09:57:16.645Z,1025.12
2022-10-06T09:58:16.655Z,1025.29
2022-10-06T09:59:16.666Z,1025.21
2022-10-06T10:00:16.797Z,1025.17
2022-10-06T10:01:16.762Z,1024.68
2022-10-06T10:02:16.710Z,1025.01
2022-10-06T10:03:16.757Z,1025.32
2022-10-06T10:04:21.258Z,1025.46
2022-10-06T10:05:16.748Z,1025.32
2022-10-06T10:06:16.756Z,1024.95
2022-10-06T10:07:16.769Z,1024.87
2022-10-06T10:08:16.788Z,1025.00
2022-10-06T10:09:19.052Z,1023.60
2022-10-06T10:10:16.809Z,1025.43
2022-10-06T10:11:16.824Z,1025.34
2022-10-06T10:12:16.835Z,1025.40
2022-10-06T10:13:16.844Z,1025.47
2022-10-06T10:14:16.864Z,1025.32
2022-10-06T10:15:16.879Z,1025.07
2022-10-06T10:16:16.920Z,1023.52
2022-10-06T10:17:16.917Z,1023.48
2022-10-06T10:18:16.909Z,1025.23
2022-10-06T10:19:16.922Z,1025.25
2022-10-06T10:20:16.933Z,1025.11
2022-10-06T10:21:16.948Z,1025.35
2022-10-06T10:22:16.957Z,1024.94
2022-10-06T10:23:16.971Z,1025.34
2022-10-06T10:24:16.985Z,1025.33
2022-10-06T10:25:16.996Z,1025.10
2022-10-06T10:26:17.010Z,1024.55
2022-10-06T10:27:17.020Z,1024.22
2022-10-06T10:28:17.134Z,1023.92
2022-10-06T10:29:17.048Z,1024.06
2022-10-06T10:30:17.061Z,1024.11
2022-10-06T10:31:17.103Z,1024.04
2022-10-06T10:32:17.084Z,1023.88
2022-10-06T10:33:17.195Z,1024.03
2022-10-06T10:34:25.065Z,1024.01
2022-10-06T10:35:17.124Z,1024.07
2022-10-06T10:36:17.125Z,1024.05
2022-10-06T10:37:17.139Z,1024.00
2022-10-06T10:38:17.150Z,1024.05
2022-10-06T10:39:17.162Z,1024.00
2022-10-06T10:40:17.177Z,1024.00
2022-10-06T10:41:17.186Z,1024.00
2022-10-06T10:42:17.259Z,1023.97
2022-10-06T10:43:17.212Z,1024.02
2022-10-06T10:44:17.222Z,1024.00
2022-10-06T10:45:17.231Z,1023.95
2022-10-06T10:46:17.303Z,1024.02
2022-10-06T10:47:17.253Z,1023.99
2022-10-06T10:48:17.263Z,1024.07
2022-10-06T10:49:17.298Z,1024.02
2022-10-06T10:50:17.286Z,1024.00
2022-10-06T10:51:17.296Z,1023.68
2022-10-06T10:52:17.308Z,1024.03
2022-10-06T10:54:17.331Z,1024.06
2022-10-06T10:55:17.341Z,1024.09
2022-10-06T10:56:17.348Z,1024.03
2022-10-06T10:57:17.358Z,1024.04
2022-10-06T10:58:17.373Z,1023.98
2022-10-06T10:59:17.379Z,1023.97
2022-10-06T11:00:17.390Z,1024.02
2022-10-06T11:01:17.454Z,1024.00
2022-10-06T11:02:17.523Z,1024.06
2022-10-06T11:03:17.419Z,1024.02
2022-10-06T11:04:17.436Z,1024.03
2022-10-06T11:05:17.473Z,1024.04
2022-10-06T11:06:17.451Z,1024.09
2022-10-06T11:07:17.463Z,1024.06
2022-10-06T11:08:17.474Z,1024.10
2022-10-06T11:09:17.477Z,1023.86
2022-10-06T11:10:17.487Z,1023.80
2022-10-06T11:11:17.496Z,1024.16
2022-10-06T11:12:17.504Z,1023.90
2022-10-06T11:13:17.518Z,1024.01
2022-10-06T11:14:17.528Z,1023.93
2022-10-06T11:15:17.535Z,1024.22
2022-10-06T11:16:17.593Z,1023.84
2022-10-06T11:17:17.551Z,1023.90
2022-10-06T11:18:21.425Z,1024.19
2022-10-06T11:19:17.571Z,1023.99
2022-10-06T11:20:17.575Z,1023.98
2022-10-06T11:21:17.602Z,1023.85
2022-10-06T11:22:17.603Z,1024.02
2022-10-06T11:23:17.601Z,1024.09
2022-10-06T11:24:17.613Z,1023.99
2022-10-06T11:25:17.614Z,1024.25
2022-10-06T11:26:17.631Z,1024.14
2022-10-06T11:27:17.635Z,1024.22
2022-10-06T11:28:17.736Z,1024.20
2022-10-06T11:29:17.657Z,1024.17
2022-10-06T11:30:17.660Z,1024.21
2022-10-06T11:31:21.986Z,1024.24
2022-10-06T11:32:17.680Z,1024.20
2022-10-06T11:33:17.682Z,1024.23
2022-10-06T11:34:17.694Z,1024.23
2022-10-06T11:35:17.698Z,1024.24
2022-10-06T11:36:17.707Z,1024.17
2022-10-06T11:37:17.734Z,1024.25
2022-10-06T11:38:17.724Z,1024.15
2022-10-06T11:39:17.729Z,1024.18
2022-10-06T11:40:17.744Z,1024.15
2022-10-06T11:41:17.746Z,1023.89
2022-10-06T11:42:17.776Z,1023.90
2022-10-06T11:43:17.760Z,1024.18
2022-10-06T11:44:17.770Z,1024.16
2022-10-06T11:45:17.773Z,1024.23
2022-10-06T11:46:17.847Z,1023.98
2022-10-06T11:47:17.789Z,1024.25
2022-10-06T11:48:17.792Z,1024.07
2022-10-06T11:49:17.805Z,1024.08
2022-10-06T11:50:17.810Z,1024.11
2022-10-06T11:51:17.826Z,1024.22
2022-10-06T11:52:17.832Z,1024.08
2022-10-06T11:53:17.853Z,1024.26
2022-10-06T11:54:17.836Z,1024.28
2022-10-06T11:55:17.851Z,1024.17
2022-10-06T11:56:17.875Z,1024.18
2022-10-06T11:57:17.853Z,1024.15
2022-10-06T11:58:40.753Z,1024.22
2022-10-06T11:59:17.869Z,1024.17
2022-10-06T12:00:17.882Z,1024.15
2022-10-06T12:01:17.887Z,1024.20
2022-10-06T12:02:18.056Z,1024.12
2022-10-06T12:03:17.911Z,1024.22
2022-10-06T12:04:23.445Z,1024.20
2022-10-06T12:05:52.391Z,1024.20
2022-10-06T12:06:17.914Z,1024.16